EZY2075 EGCC-LGKF
Flight info
| Callsign | EZY2075 |
|---|---|
| Flight time | N/A |
| Altitude | 37000 |
| Route | EGCC/05L SANBA N859 HON L15 FINMA DCT CHT DCT ITVIP DCT KONAN DCT KOK DCT SISGA DCT RITAX DCT EDISA DCT PICWI DCT UTABA DCT BEMKI DCT ELMEM DCT DIRAB DCT VESAL DCT UPIRO DCT PEVAL DCT AIOSA DCT ENOXA DCT LUPAL DCT LATAN UM872 ASTUS ASTUS1P |
| Aircraft | A319/M-SDE3FGHIRWY/LB1 |
Departure
| Time | 2026-05-05 09:19 |
|---|---|
| Airport | Manchester Airport (EGCC) |
Arrival
| Time | N/A |
|---|---|
| Airport | Kefallinia Airport (LGKF) |
| Time | Latitude | Longitude | Altitude | Speed | Heading |
|---|---|---|---|---|---|
| 2026-05-05 09:19 | 53.35419 | -2.17063 | 3143 ft | 266 kts | 154° |
| 2026-05-05 09:19 | 53.33598 | -2.16556 | 4118 ft | 271 kts | 188° |
| 2026-05-05 09:19 | 53.31727 | -2.17080 | 5190 ft | 273 kts | 189° |
| 2026-05-05 09:19 | 53.29830 | -2.17504 | 6182 ft | 278 kts | 187° |
| 2026-05-05 09:20 | 53.27908 | -2.17842 | 7169 ft | 280 kts | 187° |
| 2026-05-05 09:20 | 53.25952 | -2.18146 | 8092 ft | 284 kts | 187° |
| 2026-05-05 09:20 | 53.23972 | -2.18440 | 9046 ft | 287 kts | 187° |
| 2026-05-05 09:20 | 53.21977 | -2.18732 | 9977 ft | 290 kts | 187° |
| 2026-05-05 09:21 | 53.14949 | -2.19819 | 11244 ft | 349 kts | 187° |
| 2026-05-05 09:21 | 53.04605 | -2.21434 | 13458 ft | 384 kts | 186° |
| 2026-05-05 09:21 | 52.94324 | -2.16319 | 16153 ft | 398 kts | 154° |
| 2026-05-05 09:21 | 52.84574 | -2.07968 | 18556 ft | 410 kts | 155° |
| 2026-05-05 09:22 | 52.74499 | -1.99298 | 20541 ft | 419 kts | 154° |
| 2026-05-05 09:22 | 52.64047 | -1.90362 | 22493 ft | 426 kts | 155° |
| 2026-05-05 09:22 | 52.53393 | -1.81312 | 24158 ft | 436 kts | 155° |
| 2026-05-05 09:22 | 52.42506 | -1.72118 | 25616 ft | 443 kts | 154° |
| 2026-05-05 09:23 | 52.32295 | -1.60631 | 26938 ft | 456 kts | 134° |
| 2026-05-05 09:23 | 52.23512 | -1.45564 | 28416 ft | 457 kts | 137° |
| 2026-05-05 09:23 | 52.14714 | -1.30726 | 30300 ft | 452 kts | 137° |
| 2026-05-05 09:23 | 52.06045 | -1.16072 | 31900 ft | 448 kts | 136° |
| 2026-05-05 09:24 | 51.97376 | -1.01817 | 33641 ft | 439 kts | 139° |
| 2026-05-05 09:24 | 51.88202 | -0.88813 | 34821 ft | 440 kts | 140° |
| 2026-05-05 09:24 | 51.78981 | -0.75633 | 35843 ft | 443 kts | 140° |
| 2026-05-05 09:24 | 51.69725 | -0.62383 | 36704 ft | 446 kts | 140° |
| 2026-05-05 09:25 | 51.61524 | -0.47444 | 37023 ft | 450 kts | 116° |
| 2026-05-05 09:25 | 51.53395 | -0.09005 | 37107 ft | 452 kts | 110° |
| 2026-05-05 09:26 | 51.45383 | 0.28884 | 36960 ft | 461 kts | 110° |
| 2026-05-05 09:26 | 51.37217 | 0.66687 | 36843 ft | 460 kts | 111° |
| 2026-05-05 09:27 | 51.28740 | 1.05263 | 37025 ft | 457 kts | 110° |
| 2026-05-05 09:27 | 51.22264 | 1.44999 | 37006 ft | 465 kts | 107° |
| 2026-05-05 09:27 | 51.18978 | 1.64941 | 36890 ft | 469 kts | 107° |
| 2026-05-05 09:28 | 51.15653 | 1.84838 | 36833 ft | 467 kts | 107° |
| 2026-05-05 09:28 | 51.12798 | 2.04861 | 36743 ft | 468 kts | 95° |
| 2026-05-05 09:28 | 51.11752 | 2.25318 | 36936 ft | 464 kts | 97° |
| 2026-05-05 09:29 | 51.08890 | 2.66140 | 37021 ft | 458 kts | 112° |
| 2026-05-05 09:29 | 50.97228 | 3.02037 | 36837 ft | 461 kts | 121° |
| 2026-05-05 09:30 | 50.85220 | 3.37588 | 36827 ft | 456 kts | 122° |
| 2026-05-05 09:30 | 50.79215 | 3.55277 | 36928 ft | 452 kts | 122° |
| 2026-05-05 09:30 | 50.73186 | 3.72814 | 37013 ft | 451 kts | 122° |
| 2026-05-05 09:31 | 50.61148 | 4.07592 | 36912 ft | 458 kts | 121° |
| 2026-05-05 09:31 | 50.50418 | 4.43731 | 36799 ft | 456 kts | 119° |
| 2026-05-05 09:32 | 50.39774 | 4.78528 | 36904 ft | 451 kts | 120° |
| 2026-05-05 09:32 | 50.37043 | 4.87445 | 36922 ft | 454 kts | 120° |
| 2026-05-05 09:33 | 50.34298 | 4.96363 | 36920 ft | 455 kts | 120° |
| 2026-05-05 09:33 | 50.31538 | 5.05265 | 36910 ft | 455 kts | 120° |
| 2026-05-05 09:34 | 50.28775 | 5.14156 | 36906 ft | 454 kts | 120° |
| 2026-05-05 09:34 | 50.26011 | 5.23015 | 36909 ft | 453 kts | 120° |
| 2026-05-05 09:35 | 50.23264 | 5.31790 | 36909 ft | 452 kts | 120° |
| 2026-05-05 09:35 | 50.13910 | 5.61413 | 36870 ft | 450 kts | 121° |
| 2026-05-05 09:36 | 50.01704 | 5.95296 | 36875 ft | 446 kts | 128° |
| 2026-05-05 09:36 | 49.88159 | 6.27576 | 36869 ft | 445 kts | 128° |
| 2026-05-05 09:37 | 49.74647 | 6.59416 | 36862 ft | 444 kts | 128° |
| 2026-05-05 09:37 | 49.60988 | 6.91191 | 36850 ft | 443 kts | 128° |
| 2026-05-05 09:38 | 49.47258 | 7.22747 | 36864 ft | 443 kts | 128° |
| 2026-05-05 09:38 | 49.35801 | 7.48810 | 36885 ft | 443 kts | 129° |
| 2026-05-05 09:39 | 49.19658 | 7.85080 | 36879 ft | 443 kts | 129° |
| 2026-05-05 09:39 | 49.07994 | 8.11031 | 36856 ft | 442 kts | 129° |
| 2026-05-05 09:40 | 48.92693 | 8.39929 | 36872 ft | 437 kts | 137° |
| 2026-05-05 09:40 | 48.75998 | 8.66767 | 36861 ft | 437 kts | 138° |
| 2026-05-05 09:41 | 48.59232 | 8.93407 | 36855 ft | 437 kts | 138° |
| 2026-05-05 09:41 | 48.42361 | 9.19937 | 36866 ft | 438 kts | 138° |
| 2026-05-05 09:42 | 48.25499 | 9.46130 | 36842 ft | 438 kts | 140° |
| 2026-05-05 09:42 | 48.06726 | 9.69254 | 36787 ft | 434 kts | 144° |
| 2026-05-05 09:43 | 47.87946 | 9.92116 | 36933 ft | 435 kts | 145° |
| 2026-05-05 09:43 | 47.69064 | 10.14857 | 36862 ft | 437 kts | 145° |
| 2026-05-05 09:44 | 47.49677 | 10.36543 | 36925 ft | 435 kts | 150° |